createdAt,value
2019-05-10T00:02:01.035Z,14.57
2019-05-10T00:06:26.654Z,15.07
2019-05-10T00:10:33.776Z,13.57
2019-05-10T00:14:48.362Z,14.57
2019-05-10T00:18:56.393Z,14.63
2019-05-10T00:23:04.525Z,14.00
2019-05-10T00:27:12.523Z,16.30
2019-05-10T00:31:20.626Z,16.50
2019-05-10T00:35:28.864Z,17.17
2019-05-10T00:39:36.583Z,17.40
2019-05-10T00:43:44.808Z,16.87
2019-05-10T00:47:52.933Z,16.07
2019-05-10T00:52:00.514Z,15.33
2019-05-10T00:56:08.843Z,14.03
2019-05-10T01:00:18.391Z,13.77
2019-05-10T01:04:26.416Z,14.47
2019-05-10T01:08:34.528Z,14.30
2019-05-10T01:12:42.724Z,14.67
2019-05-10T01:16:50.546Z,15.77
2019-05-10T01:20:59.193Z,17.00
2019-05-10T01:25:07.234Z,17.10
2019-05-10T01:29:15.829Z,16.30
2019-05-10T01:33:24.229Z,16.67
2019-05-10T01:37:31.892Z,19.37
2019-05-10T01:41:40.478Z,16.10
2019-05-10T01:45:48.397Z,16.53
2019-05-10T01:49:56.101Z,16.10
2019-05-10T01:54:04.741Z,14.83
2019-05-10T01:58:12.756Z,15.33
2019-05-10T02:02:20.440Z,16.10
2019-05-10T02:06:28.674Z,17.57
2019-05-10T02:10:36.371Z,16.10
2019-05-10T02:14:43.991Z,15.17
2019-05-10T02:18:52.619Z,18.00
2019-05-10T02:23:00.833Z,15.60
2019-05-10T02:27:09.163Z,14.17
2019-05-10T02:31:21.472Z,15.97
2019-05-10T02:35:27.438Z,16.87
2019-05-10T02:39:35.354Z,15.27
2019-05-10T02:43:43.671Z,14.03
2019-05-10T02:47:51.501Z,16.43
2019-05-10T02:51:59.805Z,14.97
2019-05-10T02:56:07.720Z,13.23
2019-05-10T03:00:15.964Z,13.77
2019-05-10T03:04:26.192Z,13.63
2019-05-10T03:08:49.738Z,12.47
2019-05-10T03:13:00.158Z,13.07
2019-05-10T03:17:09.886Z,13.20
2019-05-10T03:21:19.481Z,13.80
2019-05-10T03:25:27.983Z,13.07
2019-05-10T03:29:36.220Z,11.80
2019-05-10T03:33:43.945Z,12.97
2019-05-10T03:37:52.087Z,12.37
2019-05-10T03:41:59.952Z,12.43
2019-05-10T03:46:07.565Z,11.93
2019-05-10T03:50:15.457Z,11.97
2019-05-10T03:54:23.318Z,12.63
2019-05-10T03:58:31.185Z,12.40
2019-05-10T04:02:39.627Z,12.13
2019-05-10T04:06:47.621Z,12.47
2019-05-10T04:10:55.440Z,10.80
2019-05-10T04:15:03.749Z,11.47
2019-05-10T04:19:11.349Z,11.63
2019-05-10T04:23:20.915Z,10.37
2019-05-10T04:27:32.864Z,10.20
2019-05-10T04:31:39.217Z,10.57
2019-05-10T04:35:47.435Z,8.47
2019-05-10T04:39:55.628Z,9.93
2019-05-10T04:44:03.768Z,10.17
2019-05-10T04:48:11.555Z,10.60
2019-05-10T04:52:19.287Z,10.40
2019-05-10T04:56:26.872Z,10.80
2019-05-10T05:00:35.102Z,10.53
2019-05-10T05:04:43.013Z,10.70
2019-05-10T05:08:50.828Z,9.20
2019-05-10T05:12:59.157Z,9.63
2019-05-10T05:17:07.144Z,10.80
2019-05-10T05:21:15.291Z,9.93
2019-05-10T05:25:23.087Z,10.03
2019-05-10T05:29:30.984Z,9.93
2019-05-10T05:33:39.015Z,9.60
2019-05-10T05:37:47.140Z,9.80
2019-05-10T05:41:56.694Z,9.00
2019-05-10T05:46:05.104Z,11.17
2019-05-10T05:50:13.884Z,10.20
2019-05-10T05:54:22.674Z,11.07
2019-05-10T05:58:30.705Z,10.70
2019-05-10T06:02:45.088Z,11.40
2019-05-10T06:06:53.637Z,11.23
2019-05-10T06:10:59.979Z,12.67
2019-05-10T06:15:08.379Z,12.23
2019-05-10T06:19:20.419Z,11.87
2019-05-10T06:23:29.139Z,13.07
2019-05-10T06:27:41.025Z,12.67
2019-05-10T06:31:45.577Z,13.07
2019-05-10T06:35:54.273Z,13.40
2019-05-10T06:40:02.258Z,14.03
2019-05-10T06:44:10.163Z,13.90
2019-05-10T06:48:25.807Z,15.57
2019-05-10T06:52:29.835Z,14.70
2019-05-10T06:56:39.084Z,14.10
2019-05-10T07:00:47.511Z,14.00
2019-05-10T07:04:55.228Z,13.40
2019-05-10T07:09:05.979Z,13.90
2019-05-10T07:13:14.044Z,14.47
2019-05-10T07:17:22.020Z,13.23
2019-05-10T07:21:29.882Z,14.73
2019-05-10T07:25:43.476Z,15.13
2019-05-10T07:29:48.117Z,13.47
2019-05-10T07:33:56.369Z,15.67
2019-05-10T07:38:04.118Z,15.57
2019-05-10T07:42:13.167Z,18.13
2019-05-10T07:46:21.414Z,15.73
2019-05-10T07:50:29.107Z,16.73
2019-05-10T07:54:44.903Z,16.53
2019-05-10T07:58:47.067Z,15.90
2019-05-10T08:03:02.412Z,18.80
2019-05-10T08:07:09.810Z,17.33
2019-05-10T08:11:19.175Z,16.67
2019-05-10T08:15:30.549Z,21.43
2019-05-10T08:19:38.935Z,17.80
2019-05-10T08:23:47.257Z,19.07
2019-05-10T08:27:55.454Z,26.33
2019-05-10T08:32:03.624Z,24.80
2019-05-10T08:36:12.132Z,23.40
2019-05-10T08:40:26.518Z,28.43
2019-05-10T08:44:32.709Z,23.97
2019-05-10T08:48:46.537Z,29.10
2019-05-10T08:52:49.804Z,27.90
2019-05-10T08:57:01.006Z,26.17
2019-05-10T09:01:20.456Z,26.50
2019-05-10T09:05:20.967Z,27.97
2019-05-10T09:09:26.878Z,26.90
2019-05-10T09:13:41.024Z,23.00
2019-05-10T09:17:44.458Z,21.27
2019-05-10T09:21:54.988Z,19.17
2019-05-10T09:26:12.007Z,17.27
2019-05-10T09:30:14.234Z,17.17
2019-05-10T09:34:25.948Z,18.77
2019-05-10T09:38:34.709Z,19.27
2019-05-10T09:42:43.648Z,15.73
2019-05-10T09:46:52.580Z,17.20
2019-05-10T09:51:03.761Z,14.10
2019-05-10T09:55:14.688Z,18.70
2019-05-10T09:59:20.073Z,17.10
2019-05-10T10:03:30.012Z,15.70
2019-05-10T10:07:37.512Z,15.13
2019-05-10T10:11:57.257Z,15.27
2019-05-10T10:15:57.995Z,14.23
2019-05-10T10:20:08.167Z,13.72
2019-05-10T10:24:20.072Z,13.47
2019-05-10T10:28:25.490Z,11.77
2019-05-10T10:32:34.914Z,10.07
2019-05-10T10:36:44.178Z,10.90
2019-05-10T10:40:52.006Z,11.60
2019-05-10T10:44:59.520Z,11.63
2019-05-10T10:49:07.207Z,13.57
2019-05-10T10:53:15.020Z,12.40
2019-05-10T10:57:23.216Z,13.47
2019-05-10T11:01:46.120Z,13.80
2019-05-10T11:05:41.203Z,14.07
2019-05-10T11:09:53.663Z,13.80
2019-05-10T11:14:06.934Z,8.60
2019-05-10T11:18:11.067Z,6.97
2019-05-10T11:22:21.409Z,4.20
2019-05-10T11:26:32.867Z,5.70
2019-05-10T11:30:38.714Z,8.13
2019-05-10T11:34:47.027Z,9.43
2019-05-10T11:38:58.524Z,7.53
2019-05-10T11:43:04.195Z,7.30
2019-05-10T11:47:23.263Z,7.03
2019-05-10T11:51:21.579Z,7.33
2019-05-10T11:55:30.959Z,6.87
2019-05-10T11:59:41.551Z,6.30
2019-05-10T12:03:49.418Z,7.40
2019-05-10T12:07:57.551Z,7.03
2019-05-10T12:12:05.326Z,7.17
2019-05-10T12:16:16.785Z,5.60
2019-05-10T12:20:38.534Z,6.63
2019-05-10T12:26:05.677Z,3.80
2019-05-10T12:28:43.343Z,3.40
2019-05-10T12:32:56.210Z,3.27
2019-05-10T12:37:03.843Z,3.40
2019-05-10T12:41:10.540Z,3.70
2019-05-10T12:45:22.910Z,3.53
2019-05-10T12:49:27.889Z,3.70
2019-05-10T12:53:36.668Z,3.67
2019-05-10T12:57:45.764Z,2.83
2019-05-10T13:01:53.461Z,3.00
2019-05-10T13:06:03.169Z,2.90
2019-05-10T13:10:11.893Z,2.80
2019-05-10T13:14:19.556Z,2.80
2019-05-10T13:18:48.235Z,2.90
2019-05-10T13:22:39.406Z,2.50
2019-05-10T13:26:47.028Z,2.70
2019-05-10T13:30:59.813Z,2.00
2019-05-10T13:35:07.009Z,2.33
2019-05-10T13:39:19.024Z,1.83
2019-05-10T13:43:26.898Z,1.90
2019-05-10T13:47:34.439Z,2.77
2019-05-10T13:51:42.337Z,2.30
2019-05-10T13:55:50.909Z,2.30
2019-05-10T14:00:02.254Z,2.10
2019-05-10T14:04:10.192Z,2.23
2019-05-10T14:08:18.110Z,2.40
2019-05-10T14:12:26.311Z,2.43
2019-05-10T14:16:35.183Z,2.50
2019-05-10T14:20:43.584Z,2.43
2019-05-10T14:24:53.460Z,2.63
2019-05-10T14:29:01.355Z,3.00
2019-05-10T14:33:14.629Z,2.10
2019-05-10T14:37:19.718Z,2.43
2019-05-10T14:41:28.669Z,2.43
2019-05-10T14:45:36.696Z,2.60
2019-05-10T14:49:46.797Z,3.87
2019-05-10T14:53:58.143Z,3.63
2019-05-10T14:58:05.140Z,3.90
2019-05-10T15:02:16.992Z,3.70
2019-05-10T15:06:23.835Z,4.20
2019-05-10T15:10:33.129Z,4.30
2019-05-10T15:14:41.111Z,4.43
2019-05-10T15:18:49.341Z,3.97
2019-05-10T15:22:56.954Z,3.70
2019-05-10T15:27:04.965Z,3.37
2019-05-10T15:31:13.092Z,3.77
2019-05-10T15:35:22.135Z,3.63
2019-05-10T15:39:30.580Z,3.43
2019-05-10T15:43:38.878Z,3.20
2019-05-10T15:47:51.366Z,3.03
2019-05-10T15:52:15.151Z,3.30
2019-05-10T15:56:06.409Z,3.80
2019-05-10T16:00:14.652Z,3.90
2019-05-10T16:04:22.634Z,3.63
2019-05-10T16:08:31.927Z,3.80
2019-05-10T16:12:43.077Z,4.60
2019-05-10T16:16:49.645Z,4.43
2019-05-10T16:20:57.398Z,4.83
2019-05-10T16:25:07.014Z,7.80
2019-05-10T16:29:15.140Z,4.13
2019-05-10T16:33:23.212Z,4.47
2019-05-10T16:37:30.854Z,4.47
2019-05-10T16:41:39.156Z,3.23
2019-05-10T16:45:46.989Z,4.40
2019-05-10T16:49:55.203Z,3.93
2019-05-10T16:54:02.867Z,4.60
2019-05-10T16:58:15.005Z,6.33
2019-05-10T17:02:20.618Z,11.30
2019-05-10T17:06:28.975Z,15.80
2019-05-10T17:10:36.632Z,10.07
2019-05-10T17:14:44.508Z,9.50
2019-05-10T17:18:55.305Z,6.03
2019-05-10T17:23:08.719Z,9.37
2019-05-10T17:27:13.381Z,11.73
2019-05-10T17:31:21.545Z,8.43
2019-05-10T17:35:29.915Z,8.70
2019-05-10T17:39:37.703Z,8.70
2019-05-10T17:43:47.071Z,6.63
2019-05-10T17:47:54.935Z,7.73
2019-05-10T17:52:03.202Z,7.70
2019-05-10T17:56:11.578Z,8.13
2019-05-10T18:00:19.857Z,24.10
2019-05-10T18:04:28.126Z,45.07
2019-05-10T18:08:35.969Z,25.50
2019-05-10T18:12:44.001Z,12.07
2019-05-10T18:16:51.691Z,8.50
2019-05-10T18:21:01.499Z,10.37
2019-05-10T18:25:19.525Z,11.23
2019-05-10T18:29:20.368Z,9.43
2019-05-10T18:33:29.623Z,8.20
2019-05-10T18:37:37.922Z,6.27
2019-05-10T18:41:46.492Z,6.27
2019-05-10T18:45:54.859Z,6.20
2019-05-10T18:50:02.487Z,6.23
2019-05-10T18:54:10.387Z,9.07
2019-05-10T18:58:23.208Z,6.40
2019-05-10T19:02:28.666Z,6.27
2019-05-10T19:06:36.684Z,8.07
2019-05-10T19:10:44.496Z,6.93
2019-05-10T19:14:52.091Z,6.83
2019-05-10T19:19:01.983Z,6.43
2019-05-10T19:23:13.126Z,7.17
2019-05-10T19:27:19.836Z,7.37
2019-05-10T19:31:31.542Z,6.23
2019-05-10T19:35:37.905Z,6.73
2019-05-10T19:39:46.235Z,8.97
2019-05-10T19:43:56.047Z,10.53
2019-05-10T19:48:05.839Z,8.53
2019-05-10T19:52:14.124Z,6.80
2019-05-10T19:56:22.183Z,6.07
2019-05-10T20:00:30.112Z,5.90
2019-05-10T20:04:38.115Z,5.80
2019-05-10T20:08:46.643Z,5.80
2019-05-10T20:12:54.387Z,5.23
2019-05-10T20:17:02.257Z,5.60
2019-05-10T20:21:10.286Z,5.80
2019-05-10T20:25:18.191Z,6.67
2019-05-10T20:29:25.995Z,7.90
2019-05-10T20:33:33.714Z,9.63
2019-05-10T20:37:41.738Z,6.93
2019-05-10T20:41:49.842Z,6.60
2019-05-10T20:45:57.547Z,7.20
2019-05-10T20:50:07.116Z,8.30
2019-05-10T20:54:15.124Z,8.80
2019-05-10T20:58:22.801Z,6.77
2019-05-10T21:02:30.925Z,7.03
2019-05-10T21:06:38.743Z,6.87
2019-05-10T21:10:46.459Z,6.77
2019-05-10T21:14:54.359Z,7.10
2019-05-10T21:19:02.067Z,7.20
2019-05-10T21:23:09.977Z,6.80
2019-05-10T21:27:18.508Z,7.37
2019-05-10T21:31:26.341Z,7.70
2019-05-10T21:35:35.500Z,8.80
2019-05-10T21:39:43.681Z,8.60
2019-05-10T21:43:51.489Z,8.00
2019-05-10T21:47:59.633Z,7.97
2019-05-10T21:52:07.735Z,9.17
2019-05-10T21:56:15.104Z,8.13
2019-05-10T22:00:26.775Z,8.57
2019-05-10T22:04:36.909Z,8.37
2019-05-10T22:08:49.259Z,8.67
2019-05-10T22:12:54.162Z,8.50
2019-05-10T22:17:01.966Z,10.07
2019-05-10T22:21:10.276Z,10.40
2019-05-10T22:25:18.602Z,9.40
2019-05-10T22:29:26.294Z,9.23
2019-05-10T22:33:34.632Z,9.13
2019-05-10T22:37:42.729Z,8.43
2019-05-10T22:41:53.033Z,8.30
2019-05-10T22:46:01.290Z,6.67
2019-05-10T22:50:10.172Z,7.47
2019-05-10T22:54:17.977Z,8.20
2019-05-10T22:58:25.987Z,8.10
2019-05-10T23:02:34.646Z,7.40
2019-05-10T23:06:42.243Z,7.30
2019-05-10T23:10:50.445Z,6.47
2019-05-10T23:14:58.163Z,9.20
2019-05-10T23:19:06.481Z,12.13
2019-05-10T23:23:14.714Z,12.10
2019-05-10T23:27:22.820Z,12.37
2019-05-10T23:31:35.323Z,10.63
2019-05-10T23:35:41.423Z,11.97
2019-05-10T23:39:49.226Z,11.47
2019-05-10T23:43:57.467Z,10.43
2019-05-10T23:48:05.091Z,9.33
2019-05-10T23:52:13.400Z,8.00
2019-05-10T23:56:21.600Z,7.00
